Time;durP1;ratioP1;P1;durP2;ratioP2;P2;SDS_P1;SDS_P2;PMS_P1;PMS_P2;Temp;Humidity;BMP_temperature;BMP_pressure;BME280_temperature;BME280_humidity;BME280_pressure;Samples;Min_cycle;Max_cycle;Signal;HPM_P1;HPM_P2
2022/07/21 00:01:50;;;;;;;11.00;5.50;;;22.50;99.90;;;;;;7400942;19;20015;-92
2022/07/21 00:04:16;;;;;;;7.40;4.40;;;22.60;99.90;;;;;;7403775;19;20018;-93
2022/07/21 00:06:43;;;;;;;12.63;6.15;;;22.50;99.90;;;;;;7401646;19;20010;-92
2022/07/21 00:09:10;;;;;;;6.05;3.63;;;22.40;99.90;;;;;;7402816;19;20081;-93
2022/07/21 00:11:36;;;;;;;7.78;4.10;;;22.40;99.90;;;;;;7400379;19;20010;-91
2022/07/21 00:14:03;;;;;;;7.55;4.18;;;22.40;99.90;;;;;;7397433;19;20037;-91
2022/07/21 00:16:29;;;;;;;9.55;4.97;;;22.50;99.90;;;;;;7399144;19;20014;-93
2022/07/21 00:18:55;;;;;;;5.68;3.67;;;22.60;99.90;;;;;;7400294;19;20014;-91
2022/07/21 00:21:21;;;;;;;9.65;5.28;;;22.60;99.90;;;;;;7401228;19;20010;-91
2022/07/21 00:23:47;;;;;;;9.02;4.68;;;22.50;99.90;;;;;;7400647;19;20118;-93
2022/07/21 00:26:14;;;;;;;8.43;5.22;;;22.60;99.90;;;;;;7398963;19;20009;-92
2022/07/21 00:28:40;;;;;;;10.35;5.18;;;22.50;99.90;;;;;;7400134;19;20042;-92
2022/07/21 00:31:06;;;;;;;8.85;4.90;;;22.30;99.90;;;;;;7399535;19;20010;-92
2022/07/21 00:33:32;;;;;;;12.55;6.57;;;22.10;99.90;;;;;;7401565;19;20027;-92
2022/07/21 00:35:58;;;;;;;9.13;5.43;;;22.20;99.90;;;;;;7398952;19;20015;-94
2022/07/21 00:38:23;;;;;;;10.77;5.82;;;22.20;99.90;;;;;;7402776;19;20733;-93
2022/07/21 00:40:49;;;;;;;9.98;6.03;;;22.30;99.90;;;;;;7402867;19;20018;-91
2022/07/21 00:43:15;;;;;;;12.48;6.72;;;22.30;99.90;;;;;;7398004;19;20011;-92
2022/07/21 00:45:41;;;;;;;11.07;5.60;;;22.40;99.90;;;;;;7401780;19;20018;-90
2022/07/21 00:48:08;;;;;;;15.60;7.60;;;22.40;99.90;;;;;;7401573;19;20019;-93
2022/07/21 00:50:34;;;;;;;8.65;5.10;;;22.20;99.90;;;;;;7404307;19;20024;-94
2022/07/21 00:52:59;;;;;;;11.13;6.97;;;22.10;99.90;;;;;;7399842;19;20044;-91
2022/07/21 00:55:25;;;;;;;12.57;6.70;;;22.00;99.90;;;;;;7400254;19;20015;-89
2022/07/21 00:57:53;;;;;;;10.95;7.05;;;21.70;99.90;;;;;;7402378;19;20539;-93
2022/07/21 01:00:24;;;;;;;13.30;7.18;;;21.60;99.90;;;;;;7398964;19;20014;-91
2022/07/21 01:02:50;;;;;;;9.27;6.05;;;21.20;99.90;;;;;;7397612;19;20002;-89
2022/07/21 01:05:17;;;;;;;17.67;8.90;;;21.00;99.90;;;;;;7401296;19;20098;-89
2022/07/21 01:07:48;;;;;;;16.70;9.30;;;20.80;99.90;;;;;;7404088;19;20588;-93
2022/07/21 01:10:15;;;;;;;19.75;10.25;;;20.40;99.90;;;;;;7399955;19;20028;-96
2022/07/21 01:12:41;;;;;;;9.90;6.00;;;20.10;99.90;;;;;;7399204;19;20082;-93
2022/07/21 01:15:09;;;;;;;19.90;9.80;;;20.10;99.90;;;;;;7400858;19;20066;-96
2022/07/21 01:17:37;;;;;;;18.02;8.40;;;20.20;99.90;;;;;;7400800;19;20017;-93
2022/07/21 01:20:06;;;;;;;18.80;10.15;;;20.10;99.90;;;;;;7398496;19;20018;-92
2022/07/21 01:22:37;;;;;;;18.60;10.43;;;20.10;99.90;;;;;;7397127;19;20010;-94
2022/07/21 01:25:04;;;;;;;19.75;11.35;;;19.90;99.90;;;;;;7397113;19;20010;-93
2022/07/21 01:27:30;;;;;;;22.60;12.55;;;19.70;99.90;;;;;;7397922;19;20018;-94
2022/07/21 01:30:01;;;;;;;10.35;6.97;;;19.60;99.90;;;;;;7396635;19;20486;-93
2022/07/21 01:32:27;;;;;;;17.10;10.73;;;19.60;99.90;;;;;;7399405;19;20036;-95
2022/07/21 01:34:58;;;;;;;19.00;11.35;;;19.50;99.90;;;;;;7398347;19;19999;-95
2022/07/21 01:37:28;;;;;;;17.60;12.20;;;19.30;99.90;;;;;;7402552;19;20014;-96
2022/07/21 01:42:38;;;;;;;20.10;11.95;;;19.10;99.90;;;;;;7403204;19;20014;-95
2022/07/21 01:45:05;;;;;;;20.55;13.02;;;19.10;99.90;;;;;;7405845;19;20011;-96
2022/07/21 01:47:32;;;;;;;23.45;13.30;;;19.10;99.90;;;;;;7402999;19;20016;-96
2022/07/21 01:49:59;;;;;;;20.38;12.90;;;19.20;99.90;;;;;;7402189;19;20010;-96
2022/07/21 01:52:30;;;;;;;18.13;12.65;;;19.10;99.90;;;;;;7401965;19;20014;-96
2022/07/21 01:54:56;;;;;;;23.13;15.13;;;19.10;99.90;;;;;;7402825;19;20389;-94
2022/07/21 01:57:22;;;;;;;28.60;15.27;;;19.10;99.90;;;;;;7402003;19;20467;-94
2022/07/21 01:59:48;;;;;;;27.67;17.05;;;19.00;99.90;;;;;;7402897;19;20091;-96
2022/07/21 02:02:13;;;;;;;23.88;14.38;;;19.00;99.90;;;;;;7407061;19;20030;-94
2022/07/21 02:04:42;;;;;;;24.95;15.48;;;19.00;99.90;;;;;;7403259;19;20054;-91
2022/07/21 02:07:08;;;;;;;21.98;14.77;;;19.00;99.90;;;;;;7400762;19;20482;-93
2022/07/21 02:09:36;;;;;;;22.05;14.05;;;19.00;99.90;;;;;;7401629;19;20014;-94
2022/07/21 02:12:02;;;;;;;22.02;13.85;;;19.00;99.90;;;;;;7396876;19;20018;-93
2022/07/21 02:14:31;;;;;;;21.38;14.07;;;19.00;99.90;;;;;;7399108;19;20014;-93
2022/07/21 02:17:00;;;;;;;20.17;13.55;;;19.00;99.90;;;;;;7402807;19;20010;-93
2022/07/21 02:19:31;;;;;;;19.90;13.48;;;18.90;99.90;;;;;;7401915;19;20010;-93
2022/07/21 02:21:57;;;;;;;23.67;13.82;;;19.00;99.90;;;;;;7402197;19;20010;-93
2022/07/21 02:24:22;;;;;;;20.83;14.27;;;19.10;99.90;;;;;;7402242;19;20121;-93
2022/07/21 02:26:48;;;;;;;25.90;14.60;;;19.10;99.90;;;;;;7403567;19;20007;-94
2022/07/21 02:29:14;;;;;;;22.15;14.95;;;19.00;99.90;;;;;;7402193;19;20050;-94
2022/07/21 02:31:40;;;;;;;22.13;15.20;;;19.00;99.90;;;;;;7397637;19;19999;-94
2022/07/21 02:34:09;;;;;;;20.98;12.75;;;18.90;99.90;;;;;;7398540;19;20359;-94
2022/07/21 02:36:35;;;;;;;18.50;11.10;;;19.00;99.90;;;;;;7393387;19;20463;-92
2022/07/21 02:39:02;;;;;;;25.58;14.43;;;19.10;99.90;;;;;;7397707;19;20064;-94
2022/07/21 02:41:28;;;;;;;19.75;13.88;;;19.10;99.90;;;;;;7396697;19;20018;-94
2022/07/21 02:43:56;;;;;;;27.70;16.60;;;19.00;99.90;;;;;;7395745;19;20007;-94
2022/07/21 02:46:23;;;;;;;24.70;16.98;;;19.00;99.90;;;;;;7398571;19;20024;-94
2022/07/21 02:48:48;;;;;;;17.80;12.10;;;18.90;99.90;;;;;;7401494;19;20019;-89
2022/07/21 02:51:15;;;;;;;17.02;12.65;;;18.90;99.90;;;;;;7410280;19;20022;-92
2022/07/21 02:53:41;;;;;;;23.45;15.43;;;18.90;99.90;;;;;;7395755;19;20022;-90
2022/07/21 02:56:09;;;;;;;27.80;16.65;;;19.00;99.90;;;;;;7397023;19;20018;-88
2022/07/21 02:58:36;;;;;;;25.73;16.48;;;19.10;99.90;;;;;;7397815;19;20022;-88
2022/07/21 03:01:04;;;;;;;21.50;14.02;;;19.10;99.90;;;;;;7393660;19;20014;-87
2022/07/21 03:03:33;;;;;;;29.60;17.73;;;19.20;99.90;;;;;;7395481;19;20110;-88
2022/07/21 03:05:59;;;;;;;30.60;19.25;;;19.20;99.90;;;;;;7391915;19;20049;-87
2022/07/21 03:08:26;;;;;;;28.00;18.40;;;19.10;99.90;;;;;;7392165;19;20041;-88
2022/07/21 03:10:52;;;;;;;20.90;13.93;;;19.00;99.90;;;;;;7392068;19;20018;-88
2022/07/21 03:13:19;;;;;;;23.10;15.80;;;19.00;99.90;;;;;;7392785;19;20038;-88
2022/07/21 03:15:45;;;;;;;20.27;14.70;;;19.10;99.90;;;;;;7394670;19;20475;-88
2022/07/21 03:18:11;;;;;;;21.77;15.45;;;19.10;99.90;;;;;;7393323;19;20017;-88
2022/07/21 03:20:39;;;;;;;23.38;15.77;;;19.20;99.90;;;;;;7391699;19;20124;-88
2022/07/21 03:23:06;;;;;;;23.98;14.93;;;19.20;99.90;;;;;;7393215;19;21020;-87
2022/07/21 03:25:32;;;;;;;14.65;10.43;;;19.10;99.90;;;;;;7393213;19;20042;-87
2022/07/21 03:27:58;;;;;;;25.65;16.00;;;19.10;99.90;;;;;;7393968;19;20022;-88
2022/07/21 03:30:26;;;;;;;23.83;17.25;;;19.20;99.90;;;;;;7394440;19;20006;-87
2022/07/21 03:32:53;;;;;;;12.40;7.22;;;19.30;99.90;;;;;;7393954;19;20011;-88
2022/07/21 03:35:19;;;;;;;22.77;16.60;;;19.50;99.90;;;;;;7391107;19;20018;-88
2022/07/21 03:38:06;;;;;;;17.77;13.05;;;19.70;99.90;;;;;;7393857;19;20014;-87
2022/07/21 03:40:37;;;;;;;17.95;11.50;;;19.70;99.90;;;;;;7391049;19;20073;-87
2022/07/21 03:43:06;;;;;;;13.15;10.25;;;19.70;99.90;;;;;;7391954;19;20018;-87
2022/07/21 03:45:33;;;;;;;19.80;15.70;;;19.80;99.90;;;;;;7391202;19;20010;-88
2022/07/21 03:48:02;;;;;;;21.58;14.95;;;19.80;99.90;;;;;;7395215;19;20022;-87
2022/07/21 03:50:29;;;;;;;19.98;14.95;;;19.70;99.90;;;;;;7390296;19;20018;-88
2022/07/21 03:52:56;;;;;;;19.58;13.30;;;19.70;99.90;;;;;;7396081;19;20011;-87
2022/07/21 03:55:22;;;;;;;25.30;17.55;;;19.70;99.90;;;;;;7395667;19;20014;-87
2022/07/21 03:57:55;;;;;;;21.42;15.63;;;19.70;99.90;;;;;;7391520;19;20039;-88
2022/07/21 04:00:39;;;;;;;24.90;16.90;;;19.50;99.90;;;;;;7392133;19;20006;-87
2022/07/21 04:03:06;;;;;;;20.02;16.90;;;19.40;99.90;;;;;;7391056;19;20386;-87
2022/07/21 04:05:35;;;;;;;27.00;17.45;;;19.30;99.90;;;;;;7395928;19;20348;-87
2022/07/21 04:08:01;;;;;;;24.77;18.63;;;19.30;99.90;;;;;;7392427;19;20497;-87
2022/07/21 04:10:29;;;;;;;23.27;18.77;;;19.20;99.90;;;;;;7394367;19;20006;-86
2022/07/21 04:12:57;;;;;;;25.80;19.05;;;19.00;99.90;;;;;;7389554;19;20010;-87
2022/07/21 04:15:23;;;;;;;37.22;22.42;;;19.00;99.90;;;;;;7390659;19;20022;-87
2022/07/21 04:17:53;;;;;;;34.80;22.45;;;19.00;99.90;;;;;;7394670;19;20015;-87
2022/07/21 04:20:19;;;;;;;27.45;22.10;;;18.90;99.90;;;;;;7393626;19;20022;-87
2022/07/21 04:22:47;;;;;;;26.90;20.58;;;18.90;99.90;;;;;;7395555;19;20014;-88
2022/07/21 04:25:14;;;;;;;26.02;21.23;;;18.90;99.90;;;;;;7395601;19;20048;-88
2022/07/21 04:27:40;;;;;;;20.35;17.27;;;19.00;99.90;;;;;;7394474;19;20359;-88
2022/07/21 04:30:08;;;;;;;20.17;14.82;;;19.10;99.90;;;;;;7393070;19;20011;-88
2022/07/21 04:32:34;;;;;;;17.75;13.15;;;19.20;99.90;;;;;;7394166;19;20011;-88
2022/07/21 04:35:00;;;;;;;28.70;19.65;;;19.50;99.90;;;;;;7394056;19;20015;-87
2022/07/21 04:37:26;;;;;;;22.83;18.55;;;19.60;99.90;;;;;;7397950;19;20114;-88
2022/07/21 04:39:55;;;;;;;11.77;8.60;;;19.80;99.90;;;;;;7403123;19;20014;-88
2022/07/21 04:42:26;;;;;;;16.60;11.57;;;19.90;99.90;;;;;;7403443;19;20007;-87
2022/07/21 04:44:55;;;;;;;14.75;11.85;;;20.10;99.90;;;;;;7399197;19;20082;-88
2022/07/21 04:47:21;;;;;;;14.57;11.07;;;20.30;99.90;;;;;;7399646;19;20006;-87
2022/07/21 04:49:50;;;;;;;20.42;16.40;;;20.40;99.90;;;;;;7397849;19;20415;-88
2022/07/21 04:52:16;;;;;;;10.63;8.55;;;20.70;99.90;;;;;;7398692;19;20014;-88
2022/07/21 04:54:44;;;;;;;17.52;13.38;;;20.80;99.90;;;;;;7398429;19;20010;-88
2022/07/21 04:57:10;;;;;;;17.70;13.73;;;20.70;99.90;;;;;;7398148;19;20360;-87
2022/07/21 04:59:36;;;;;;;18.05;13.93;;;20.50;99.90;;;;;;7395316;19;20582;-88
2022/07/21 05:02:02;;;;;;;18.15;15.30;;;20.60;99.90;;;;;;7401756;19;20025;-88
2022/07/21 05:04:28;;;;;;;17.70;13.00;;;20.60;99.90;;;;;;7397786;19;20360;-88
2022/07/21 05:06:54;;;;;;;15.95;12.95;;;20.60;99.90;;;;;;7397082;19;20484;-88
2022/07/21 05:09:20;;;;;;;20.20;16.98;;;20.60;99.90;;;;;;7398013;19;20003;-88
2022/07/21 05:11:47;;;;;;;23.52;17.55;;;20.50;99.90;;;;;;7397731;19;20337;-88
2022/07/21 05:14:14;;;;;;;20.55;17.05;;;20.30;99.90;;;;;;7394619;19;20364;-88
2022/07/21 05:16:40;;;;;;;25.02;18.52;;;20.20;99.90;;;;;;7397147;19;20487;-88
2022/07/21 05:19:06;;;;;;;21.77;17.58;;;20.20;99.90;;;;;;7396989;19;20022;-88
2022/07/21 05:21:31;;;;;;;17.63;14.45;;;20.00;99.90;;;;;;7397039;19;20011;-89
2022/07/21 05:23:57;;;;;;;20.73;13.98;;;20.00;99.90;;;;;;7398302;19;20018;-88
2022/07/21 05:26:23;;;;;;;22.30;16.35;;;20.10;99.90;;;;;;7401087;19;20073;-88
2022/07/21 05:28:49;;;;;;;24.50;18.20;;;20.10;99.90;;;;;;7391225;19;20014;-87
2022/07/21 05:31:18;;;;;;;21.58;18.10;;;20.10;99.90;;;;;;7392312;19;20078;-88
2022/07/21 05:33:46;;;;;;;13.32;10.02;;;20.10;99.90;;;;;;7396970;19;20015;-88
2022/07/21 05:36:14;;;;;;;24.73;19.00;;;20.20;99.90;;;;;;7397847;19;20806;-89
2022/07/21 05:38:40;;;;;;;22.98;18.30;;;20.20;99.90;;;;;;7396712;19;20518;-88
2022/07/21 05:41:06;;;;;;;17.55;14.55;;;20.30;99.90;;;;;;7398607;19;20010;-88
2022/07/21 05:43:32;;;;;;;28.23;20.27;;;20.30;99.90;;;;;;7394758;19;20014;-89
2022/07/21 05:45:58;;;;;;;19.27;16.58;;;20.30;99.90;;;;;;7398193;19;20022;-89
2022/07/21 05:48:24;;;;;;;25.23;20.33;;;20.30;99.90;;;;;;7398227;19;20035;-89
2022/07/21 05:50:50;;;;;;;25.42;19.92;;;20.40;99.90;;;;;;7396380;19;20014;-91
2022/07/21 05:53:16;;;;;;;33.42;25.08;;;20.40;99.90;;;;;;7403905;19;20514;-95
2022/07/21 05:55:43;;;;;;;27.45;21.10;;;20.30;99.90;;;;;;7406239;19;20078;-96
2022/07/21 05:58:09;;;;;;;37.95;25.05;;;20.30;99.90;;;;;;7401347;19;20015;-89
2022/07/21 06:00:35;;;;;;;33.47;25.77;;;20.30;99.90;;;;;;7394964;19;20022;-95
2022/07/21 06:03:01;;;;;;;46.20;28.17;;;20.30;99.90;;;;;;7398123;19;20070;-87
2022/07/21 06:05:26;;;;;;;31.83;25.85;;;20.30;99.90;;;;;;7394829;19;20022;-86
2022/07/21 06:07:52;;;;;;;22.45;16.27;;;20.20;99.90;;;;;;7395086;19;20154;-86
2022/07/21 06:10:18;;;;;;;30.75;24.48;;;20.30;99.90;;;;;;7390715;19;20010;-85
2022/07/21 06:12:44;;;;;;;31.05;21.33;;;20.50;99.90;;;;;;7396622;19;20041;-84
2022/07/21 06:15:11;;;;;;;20.20;15.57;;;20.70;99.90;;;;;;7392883;19;20018;-83
2022/07/21 06:17:42;;;;;;;23.90;16.98;;;20.90;99.90;;;;;;7395945;19;20010;-85
2022/07/21 06:20:09;;;;;;;29.50;23.63;;;21.10;99.90;;;;;;7393890;19;20018;-84
2022/07/21 06:22:36;;;;;;;19.77;17.20;;;21.20;99.90;;;;;;7396972;19;20041;-86
2022/07/21 06:25:03;;;;;;;19.27;15.75;;;21.20;99.90;;;;;;7391045;19;20011;-85
2022/07/21 06:27:29;;;;;;;31.33;24.40;;;21.40;99.90;;;;;;7394231;19;20344;-86
2022/07/21 06:29:56;;;;;;;25.45;19.75;;;21.40;99.90;;;;;;7391870;19;20015;-86
2022/07/21 06:32:23;;;;;;;30.55;23.85;;;21.40;99.90;;;;;;7398714;19;20014;-86
2022/07/21 06:34:48;;;;;;;30.88;24.38;;;21.30;99.90;;;;;;7394868;19;20364;-86
2022/07/21 06:37:14;;;;;;;20.42;17.27;;;21.20;99.90;;;;;;7395683;19;20059;-85
2022/07/21 06:39:41;;;;;;;21.02;16.45;;;21.20;99.90;;;;;;7396041;19;20010;-86
2022/07/21 06:42:08;;;;;;;21.58;16.25;;;21.30;99.90;;;;;;7392174;19;20023;-86
2022/07/21 06:44:34;;;;;;;27.42;22.25;;;21.50;99.90;;;;;;7393449;19;20014;-85
2022/07/21 06:47:04;;;;;;;25.98;23.17;;;21.70;99.90;;;;;;7395481;19;20027;-85
2022/07/21 06:49:33;;;;;;;24.73;21.65;;;21.40;99.90;;;;;;7391069;19;20015;-85
2022/07/21 06:51:59;;;;;;;25.85;22.92;;;21.40;99.90;;;;;;7392643;19;20015;-86
2022/07/21 06:54:25;;;;;;;26.50;21.88;;;21.20;99.90;;;;;;7392215;19;20074;-85
2022/07/21 06:56:51;;;;;;;27.73;23.73;;;21.30;99.90;;;;;;7393156;19;20403;-85
2022/07/21 06:59:18;;;;;;;25.63;21.80;;;21.30;99.90;;;;;;7392531;19;20019;-86
2022/07/21 07:01:44;;;;;;;22.85;18.80;;;21.40;99.90;;;;;;7394230;19;20554;-86
2022/07/21 07:04:10;;;;;;;24.65;21.02;;;21.40;99.90;;;;;;7393756;19;20028;-86
2022/07/21 07:06:35;;;;;;;23.67;19.60;;;21.40;99.90;;;;;;7393575;19;20663;-87
2022/07/21 07:09:01;;;;;;;25.10;21.58;;;21.30;99.90;;;;;;7393855;19;20011;-86
2022/07/21 07:11:27;;;;;;;22.63;18.35;;;21.20;99.90;;;;;;7396036;19;20015;-87
2022/07/21 07:13:53;;;;;;;17.60;15.77;;;21.20;99.90;;;;;;7392109;19;20011;-86
2022/07/21 07:16:19;;;;;;;18.17;16.13;;;21.40;99.90;;;;;;7392200;19;20425;-87
2022/07/21 07:18:45;;;;;;;22.73;19.73;;;21.40;99.90;;;;;;7395290;19;20022;-88
2022/07/21 07:21:10;;;;;;;27.92;22.63;;;21.20;99.90;;;;;;7394308;19;20014;-87
2022/07/21 07:23:36;;;;;;;19.90;17.40;;;21.20;99.90;;;;;;7396885;19;20014;-87
2022/07/21 07:26:02;;;;;;;23.15;20.75;;;21.40;99.90;;;;;;7391528;19;20015;-87
2022/07/21 07:28:28;;;;;;;23.02;20.50;;;21.40;99.90;;;;;;7391718;19;20045;-88
2022/07/21 07:30:55;;;;;;;23.15;20.65;;;21.70;99.90;;;;;;7392936;19;20014;-88
2022/07/21 07:33:21;;;;;;;18.90;16.90;;;21.60;99.90;;;;;;7392502;19;20014;-87
2022/07/21 07:35:47;;;;;;;22.88;18.65;;;21.60;99.90;;;;;;7391040;19;20105;-88
2022/07/21 07:38:14;;;;;;;29.75;24.40;;;21.40;99.90;;;;;;7392994;19;20019;-89
2022/07/21 07:40:40;;;;;;;25.10;22.40;;;21.40;99.90;;;;;;7391385;19;20011;-89
2022/07/21 07:43:07;;;;;;;17.67;15.80;;;21.50;99.90;;;;;;7392858;19;20366;-88
2022/07/21 07:45:34;;;;;;;18.52;16.60;;;21.50;99.90;;;;;;7393587;19;20066;-87
2022/07/21 07:48:00;;;;;;;24.55;20.67;;;21.70;99.90;;;;;;7392409;19;20018;-87
2022/07/21 07:50:26;;;;;;;20.48;17.73;;;21.70;99.90;;;;;;7395516;19;20082;-88
2022/07/21 07:52:52;;;;;;;20.88;18.58;;;21.60;99.90;;;;;;7391696;19;20078;-87
2022/07/21 07:55:18;;;;;;;24.58;22.00;;;21.50;99.90;;;;;;7392230;19;20037;-87
2022/07/21 07:57:45;;;;;;;18.10;15.85;;;21.60;99.90;;;;;;7390550;19;20074;-86
2022/07/21 08:00:14;;;;;;;19.60;15.95;;;21.70;99.90;;;;;;7391501;19;20014;-87
2022/07/21 08:02:41;;;;;;;18.45;16.52;;;21.90;99.90;;;;;;7392903;19;20359;-87
2022/07/21 08:05:10;;;;;;;21.13;18.50;;;22.10;99.90;;;;;;7394015;19;20038;-87
2022/07/21 08:07:37;;;;;;;20.38;17.42;;;22.10;99.90;;;;;;7389897;19;20619;-87
2022/07/21 08:10:06;;;;;;;25.80;22.88;;;22.00;99.90;;;;;;7377263;19;20386;-87
2022/07/21 08:12:31;;;;;;;25.55;22.90;;;21.70;99.90;;;;;;7401388;19;20015;-90
2022/07/21 08:14:57;;;;;;;18.17;16.35;;;21.40;99.90;;;;;;7401021;19;20077;-90
2022/07/21 08:17:23;;;;;;;19.55;17.15;;;21.50;99.90;;;;;;7395280;19;20088;-88
2022/07/21 08:19:49;;;;;;;21.10;18.90;;;21.50;99.90;;;;;;7397717;19;20018;-88
2022/07/21 08:22:15;;;;;;;21.50;19.27;;;21.60;99.90;;;;;;7391178;19;20087;-88
2022/07/21 08:24:41;;;;;;;17.88;15.50;;;21.90;99.90;;;;;;7399406;19;20011;-87
2022/07/21 08:27:07;;;;;;;24.05;21.60;;;22.30;99.90;;;;;;7395651;19;20523;-87
2022/07/21 08:29:33;;;;;;;19.92;17.52;;;22.60;99.90;;;;;;7392982;19;20015;-88
2022/07/21 08:31:59;;;;;;;22.48;20.10;;;22.70;99.90;;;;;;7393778;19;20494;-89
2022/07/21 08:34:26;;;;;;;19.00;17.08;;;22.80;99.90;;;;;;7394793;19;20019;-88
2022/07/21 08:36:52;;;;;;;26.27;23.48;;;23.00;99.90;;;;;;7399980;19;20034;-87
2022/07/21 08:39:17;;;;;;;17.95;16.08;;;23.20;99.90;;;;;;7396631;19;20325;-87
2022/07/21 08:41:44;;;;;;;18.88;14.95;;;23.30;99.90;;;;;;7396625;19;20025;-87
2022/07/21 08:44:10;;;;;;;16.23;14.63;;;23.50;99.90;;;;;;7394966;19;20037;-88
2022/07/21 08:46:40;;;;;;;16.05;14.45;;;23.60;99.90;;;;;;7396308;19;20011;-88
2022/07/21 08:49:08;;;;;;;16.10;14.40;;;24.00;99.90;;;;;;7393874;19;20028;-89
2022/07/21 08:51:34;;;;;;;21.13;18.98;;;24.00;99.90;;;;;;7400940;19;20022;-89
2022/07/21 08:54:01;;;;;;;17.00;15.20;;;23.90;99.90;;;;;;7398874;19;20011;-89
2022/07/21 08:56:28;;;;;;;16.70;15.05;;;23.70;99.90;;;;;;7394026;19;20010;-89
2022/07/21 08:58:54;;;;;;;14.90;13.32;;;23.70;99.90;;;;;;7396948;19;20018;-89
2022/07/21 09:01:23;;;;;;;19.35;17.35;;;23.70;99.90;;;;;;7398328;19;20018;-90
2022/07/21 09:03:51;;;;;;;18.83;17.02;;;23.90;99.90;;;;;;7397075;19;20038;-90
2022/07/21 09:06:17;;;;;;;14.68;13.15;;;24.20;99.90;;;;;;7396247;19;20026;-89
2022/07/21 09:08:48;;;;;;;17.08;14.93;;;24.60;99.90;;;;;;7394992;19;20014;-91
2022/07/21 09:11:26;;;;;;;15.40;13.90;;;24.70;99.90;;;;;;7400478;19;20033;-90
2022/07/21 09:14:13;;;;;;;15.40;13.85;;;24.80;99.90;;;;;;7395878;19;20019;-88
2022/07/21 09:16:42;;;;;;;15.07;13.48;;;24.30;99.90;;;;;;7394355;19;20014;-88
2022/07/21 09:19:20;;;;;;;15.15;13.55;;;24.10;99.90;;;;;;7388834;19;20017;-90
2022/07/21 09:21:46;;;;;;;12.40;11.15;;;24.20;99.90;;;;;;7390138;19;20065;-89
2022/07/21 09:24:26;;;;;;;13.63;12.20;;;24.20;99.90;;;;;;7393205;19;20010;-90
2022/07/21 09:27:08;;;;;;;13.68;11.82;;;24.10;99.90;;;;;;7397260;19;20007;-90
2022/07/21 09:29:51;;;;;;;17.17;15.45;;;24.30;99.90;;;;;;7398409;19;20359;-89
2022/07/21 09:32:30;;;;;;;18.55;16.55;;;24.40;99.90;;;;;;7396578;19;20411;-90
2022/07/21 09:35:04;;;;;;;21.23;18.98;;;24.30;99.90;;;;;;7398893;19;20042;-89
2022/07/21 09:37:31;;;;;;;14.75;13.35;;;24.20;99.90;;;;;;7396427;19;20020;-89
2022/07/21 09:40:07;;;;;;;20.30;18.30;;;24.30;99.90;;;;;;7390891;19;20018;-89
2022/07/21 09:42:42;;;;;;;16.77;15.15;;;24.20;99.90;;;;;;7394906;19;20018;-90
2022/07/21 09:45:11;;;;;;;19.77;17.65;;;24.20;99.90;;;;;;7394973;19;20078;-89
2022/07/21 09:47:38;;;;;;;20.15;17.98;;;24.00;99.90;;;;;;7393342;19;20018;-89
2022/07/21 09:50:07;;;;;;;17.42;14.30;;;23.90;99.90;;;;;;7396238;19;20540;-88
2022/07/21 09:52:38;;;;;;;17.77;13.95;;;24.00;99.90;;;;;;7396919;19;20014;-90
2022/07/21 09:55:13;;;;;;;16.25;14.52;;;24.10;99.90;;;;;;7403278;19;20474;-85
2022/07/21 09:57:40;;;;;;;17.65;13.30;;;24.00;99.90;;;;;;7412410;19;20014;-92
2022/07/21 10:00:13;;;;;;;15.43;13.85;;;24.10;99.90;;;;;;7393555;19;20027;-92
2022/07/21 10:02:39;;;;;;;19.83;17.75;;;24.20;99.90;;;;;;7398071;19;20019;-91
2022/07/21 10:05:10;;;;;;;17.63;15.93;;;24.20;99.90;;;;;;7388782;19;20090;-90
2022/07/21 10:07:39;;;;;;;16.58;14.95;;;24.10;99.90;;;;;;7391166;19;20521;-92
2022/07/21 10:10:06;;;;;;;18.70;15.25;;;24.00;99.90;;;;;;7396757;19;20011;-96
2022/07/21 10:12:32;;;;;;;13.90;12.45;;;23.70;99.90;;;;;;7407729;19;20015;-96
2022/07/21 10:14:58;;;;;;;17.75;15.85;;;23.50;99.90;;;;;;7414266;19;20011;-95
2022/07/21 10:17:25;;;;;;;13.40;12.13;;;23.40;99.90;;;;;;7416250;19;20002;-95
2022/07/21 10:20:08;;;;;;;16.17;14.57;;;23.50;99.90;;;;;;7411149;19;20082;-95
2022/07/21 10:22:58;;;;;;;17.58;15.85;;;23.60;99.90;;;;;;7402856;19;20014;-93
2022/07/21 10:25:25;;;;;;;16.35;14.75;;;23.60;99.90;;;;;;7395887;19;20605;-94
2022/07/21 10:28:12;;;;;;;14.57;13.13;;;23.50;99.90;;;;;;7399542;19;20014;-95
2022/07/21 10:30:39;;;;;;;21.45;19.25;;;23.60;99.90;;;;;;7412105;19;20006;-96
2022/07/21 10:33:05;;;;;;;16.38;14.73;;;23.40;99.90;;;;;;7410380;19;20013;-94
2022/07/21 10:35:32;;;;;;;17.20;15.52;;;23.40;99.90;;;;;;7402930;19;20011;-95
2022/07/21 10:37:59;;;;;;;20.88;18.85;;;23.10;99.90;;;;;;7398034;19;20364;-95
2022/07/21 10:40:28;;;;;;;22.60;20.42;;;23.20;99.90;;;;;;7397898;19;20010;-95
2022/07/21 10:43:00;;;;;;;14.75;13.27;;;23.00;99.90;;;;;;7396272;19;20038;-93
2022/07/21 10:45:33;;;;;;;19.30;17.10;;;23.00;99.90;;;;;;7397140;19;20030;-93
2022/07/21 10:48:00;;;;;;;16.02;14.43;;;23.10;99.90;;;;;;7399262;19;20010;-96
2022/07/21 10:50:35;;;;;;;17.05;15.35;;;23.00;99.90;;;;;;7400521;19;20482;-96
2022/07/21 10:53:11;;;;;;;19.88;17.88;;;23.00;99.90;;;;;;7401773;19;20002;-96
2022/07/21 10:55:38;;;;;;;18.88;17.05;;;23.10;99.90;;;;;;7400093;19;20024;-95
2022/07/21 10:58:29;;;;;;;17.38;15.57;;;23.10;99.90;;;;;;7397611;19;20014;-95
2022/07/21 11:00:56;;;;;;;15.88;14.45;;;23.30;99.90;;;;;;7402613;19;20018;-95
2022/07/21 11:03:31;;;;;;;16.27;14.57;;;23.20;99.90;;;;;;7395477;19;20018;-94
2022/07/21 11:06:06;;;;;;;18.05;16.30;;;23.50;99.90;;;;;;7393827;19;20408;-94
2022/07/21 11:08:57;;;;;;;16.23;14.45;;;23.60;99.90;;;;;;7392583;19;20018;-93
2022/07/21 11:11:28;;;;;;;23.70;21.17;;;23.70;99.90;;;;;;7398626;19;20081;-95
2022/07/21 11:14:00;;;;;;;21.80;19.60;;;23.70;99.90;;;;;;7397731;19;20132;-95
2022/07/21 11:16:48;;;;;;;24.03;19.80;;;23.70;99.90;;;;;;7394976;19;20120;-95
2022/07/21 11:19:37;;;;;;;22.25;19.98;;;23.80;99.90;;;;;;7388689;19;20255;-92
2022/07/21 11:22:10;;;;;;;15.48;13.98;;;23.60;99.90;;;;;;7396358;19;20034;-96
2022/07/21 11:24:37;;;;;;;18.85;17.05;;;23.60;99.90;;;;;;7411146;19;20462;-95
2022/07/21 11:27:08;;;;;;;19.20;17.23;;;23.60;99.90;;;;;;7396338;19;20006;-95
2022/07/21 11:29:36;;;;;;;22.15;19.95;;;23.60;99.90;;;;;;7395495;19;20015;-87
2022/07/21 11:32:03;;;;;;;24.98;19.60;;;23.60;99.90;;;;;;7392507;19;20086;-90
2022/07/21 11:34:46;;;;;;;26.20;22.42;;;23.50;99.90;;;;;;7394918;19;20026;-93
2022/07/21 11:37:15;;;;;;;25.55;22.95;;;23.30;99.90;;;;;;7395302;19;20093;-92
2022/07/21 11:39:41;;;;;;;27.55;20.50;;;23.20;99.90;;;;;;7394520;19;20015;-93
2022/07/21 11:42:14;;;;;;;26.42;23.73;;;23.20;99.90;;;;;;7413580;19;20022;-90
2022/07/21 11:44:42;;;;;;;22.20;17.00;;;23.10;99.90;;;;;;7413130;19;20011;-93
2022/07/21 11:47:11;;;;;;;24.00;21.00;;;23.30;99.90;;;;;;7396510;19;20018;-91
2022/07/21 11:49:38;;;;;;;21.23;18.77;;;23.30;99.90;;;;;;7402091;19;20006;-91
2022/07/21 11:52:17;;;;;;;25.60;22.88;;;23.30;99.90;;;;;;7396670;19;20034;-92
2022/07/21 11:54:46;;;;;;;22.35;20.02;;;23.20;99.90;;;;;;7399519;19;20025;-92
2022/07/21 11:57:13;;;;;;;21.10;18.80;;;23.20;99.90;;;;;;7397730;19;20011;-92
2022/07/21 11:59:43;;;;;;;21.35;18.77;;;23.20;99.90;;;;;;7403058;19;20014;-91
2022/07/21 12:02:21;;;;;;;28.38;25.35;;;23.10;99.90;;;;;;7403817;19;20014;-90
2022/07/21 12:05:15;;;;;;;21.38;19.08;;;23.10;99.90;;;;;;7401701;19;20032;-91
2022/07/21 12:07:44;;;;;;;22.92;19.75;;;23.10;99.90;;;;;;7395003;19;20018;-92
2022/07/21 12:10:13;;;;;;;25.88;23.08;;;23.30;99.90;;;;;;7404080;19;20034;-92
2022/07/21 12:12:42;;;;;;;25.23;22.30;;;23.40;99.90;;;;;;7400924;19;20010;-92
2022/07/21 12:15:18;;;;;;;28.48;24.33;;;23.60;99.90;;;;;;7401041;19;20030;-91
2022/07/21 12:17:49;;;;;;;32.13;28.45;;;23.70;99.90;;;;;;7401148;19;20014;-92
2022/07/21 12:20:24;;;;;;;28.10;24.33;;;23.80;99.90;;;;;;7400299;19;20018;-92
2022/07/21 12:22:50;;;;;;;28.20;24.23;;;23.80;99.90;;;;;;7399345;19;20034;-92
2022/07/21 12:25:18;;;;;;;35.78;31.42;;;23.80;99.90;;;;;;7402137;19;20014;-92
2022/07/21 12:27:46;;;;;;;32.13;26.25;;;23.80;99.90;;;;;;7400447;19;20041;-91
2022/07/21 12:30:32;;;;;;;34.85;29.95;;;23.90;99.90;;;;;;7403560;19;20022;-91
2022/07/21 12:33:07;;;;;;;30.10;25.73;;;24.00;99.90;;;;;;7400786;19;20017;-92
2022/07/21 12:35:34;;;;;;;32.78;29.27;;;24.00;99.90;;;;;;7402160;19;20110;-93
2022/07/21 12:38:09;;;;;;;37.17;32.42;;;24.10;99.90;;;;;;7401509;19;20123;-93